Acucena, Brazil
Current Conditions -  °F | °C
As of 11:00 AM on Tuesday 21 Oct 2014 (Local Time) from SBIP Reporting Station
Smoke Smoke  
Wind Chill: 79°   Ceiling: 4500
Heat Index: 81°   Visibility: 2.5mi
Dew Point: 66°   Wind: 2mph
Humidity: 65%   Direction: 10°N
Pressure: 30.03"   Gusts: NA
Location:  19.06°S, 42.54°W
Report Text: SBIP 211300Z 01002KT 4000 FU SCT025 BKN045 26/19 Q1017
Loading
Personal Weather Stations






























Interactive Weather Map
Tropical Storm Tracking
New forecast layout! Learn more

10-Day Weather Forecast

Advertisements
Track Severe Weather on mobile